createdAt,value
2023-01-07T00:00:22.000Z,100.00
2023-01-07T00:02:51.889Z,100.00
2023-01-07T00:05:18.569Z,100.00
2023-01-07T00:07:45.144Z,100.00
2023-01-07T00:10:11.893Z,100.00
2023-01-07T00:12:38.468Z,100.00
2023-01-07T00:15:05.572Z,100.00
2023-01-07T00:17:32.197Z,100.00
2023-01-07T00:19:58.791Z,100.00
2023-01-07T00:22:25.450Z,100.00
2023-01-07T00:24:52.097Z,100.00
2023-01-07T00:27:18.720Z,100.00
2023-01-07T00:29:45.324Z,100.00
2023-01-07T00:32:11.932Z,100.00
2023-01-07T00:34:39.092Z,100.00
2023-01-07T00:37:37.858Z,100.00
2023-01-07T00:40:04.982Z,100.00
2023-01-07T00:42:50.259Z,100.00
2023-01-07T00:45:17.009Z,100.00
2023-01-07T00:47:43.735Z,100.00
2023-01-07T00:50:10.403Z,100.00
2023-01-07T00:52:37.148Z,100.00
2023-01-07T00:55:04.094Z,100.00
2023-01-07T00:57:30.933Z,100.00
2023-01-07T00:59:57.904Z,100.00
2023-01-07T01:02:25.027Z,100.00
2023-01-07T01:04:52.473Z,100.00
2023-01-07T01:07:19.053Z,100.00
2023-01-07T01:09:45.752Z,100.00
2023-01-07T01:12:12.569Z,100.00
2023-01-07T01:14:39.174Z,100.00
2023-01-07T01:17:07.220Z,100.00
2023-01-07T01:19:33.917Z,100.00
2023-01-07T01:22:00.562Z,100.00
2023-01-07T01:24:27.252Z,100.00
2023-01-07T01:26:53.859Z,100.00
2023-01-07T01:29:20.564Z,100.00
2023-01-07T01:31:48.553Z,100.00
2023-01-07T01:34:15.208Z,100.00
2023-01-07T01:36:42.117Z,100.00
2023-01-07T01:39:08.906Z,100.00
2023-01-07T01:41:36.357Z,100.00
2023-01-07T01:44:28.757Z,100.00
2023-01-07T01:46:55.682Z,100.00
2023-01-07T01:49:34.696Z,100.00
2023-01-07T01:52:15.450Z,100.00
2023-01-07T01:54:45.753Z,100.00
2023-01-07T01:57:12.842Z,100.00
2023-01-07T01:59:44.153Z,100.00
2023-01-07T02:02:17.977Z,100.00
2023-01-07T02:04:44.821Z,100.00
2023-01-07T02:07:16.797Z,100.00
2023-01-07T02:09:58.580Z,100.00
2023-01-07T02:12:31.977Z,100.00
2023-01-07T02:15:10.114Z,100.00
2023-01-07T02:18:05.498Z,100.00
2023-01-07T02:20:32.381Z,100.00
2023-01-07T02:23:04.839Z,100.00
2023-01-07T02:25:43.559Z,100.00
2023-01-07T02:28:45.364Z,100.00
2023-01-07T02:32:01.834Z,100.00
2023-01-07T02:35:26.059Z,100.00
2023-01-07T02:38:01.517Z,100.00
2023-01-07T02:40:55.656Z,100.00
2023-01-07T02:43:37.277Z,100.00
2023-01-07T02:46:29.763Z,100.00
2023-01-07T02:49:08.531Z,100.00
2023-01-07T02:51:37.454Z,100.00
2023-01-07T02:54:21.058Z,100.00
2023-01-07T02:56:57.696Z,100.00
2023-01-07T02:59:49.911Z,100.00
2023-01-07T03:02:44.297Z,100.00
2023-01-07T03:05:37.967Z,100.00
2023-01-07T03:08:29.650Z,100.00
2023-01-07T03:11:00.815Z,100.00
2023-01-07T03:13:48.014Z,100.00
2023-01-07T03:16:25.788Z,100.00
2023-01-07T03:19:00.844Z,100.00
2023-01-07T03:21:31.301Z,100.00
2023-01-07T03:24:00.827Z,100.00
2023-01-07T03:26:32.829Z,100.00
2023-01-07T03:29:02.928Z,100.00
2023-01-07T03:31:31.800Z,100.00
2023-01-07T03:34:15.155Z,100.00
2023-01-07T03:36:46.747Z,100.00
2023-01-07T03:39:14.919Z,100.00
2023-01-07T03:42:00.496Z,100.00
2023-01-07T03:44:27.622Z,100.00
2023-01-07T03:46:54.497Z,100.00
2023-01-07T03:49:21.227Z,100.00
2023-01-07T03:51:49.582Z,100.00
2023-01-07T03:54:16.715Z,100.00
2023-01-07T03:56:43.386Z,100.00
2023-01-07T03:59:10.040Z,100.00
2023-01-07T04:01:37.048Z,100.00
2023-01-07T04:04:04.716Z,100.00
2023-01-07T04:06:31.770Z,100.00
2023-01-07T04:08:58.559Z,100.00
2023-01-07T04:11:25.842Z,100.00
2023-01-07T04:13:53.702Z,100.00
2023-01-07T04:16:20.841Z,100.00
2023-01-07T04:18:48.036Z,100.00
2023-01-07T04:21:15.189Z,100.00
2023-01-07T04:23:41.837Z,100.00
2023-01-07T04:26:09.889Z,100.00
2023-01-07T04:28:38.031Z,100.00
2023-01-07T04:31:04.956Z,100.00
2023-01-07T04:33:34.106Z,100.00
2023-01-07T04:36:00.962Z,100.00
2023-01-07T04:38:27.775Z,100.00
2023-01-07T04:40:55.277Z,100.00
2023-01-07T04:43:22.763Z,100.00
2023-01-07T04:45:50.507Z,100.00
2023-01-07T04:48:18.020Z,100.00
2023-01-07T04:50:47.178Z,100.00
2023-01-07T04:53:15.403Z,100.00
2023-01-07T04:55:43.942Z,100.00
2023-01-07T04:58:12.814Z,100.00
2023-01-07T05:00:40.017Z,100.00
2023-01-07T05:03:07.589Z,100.00
2023-01-07T05:05:35.650Z,100.00
2023-01-07T05:08:03.780Z,100.00
2023-01-07T05:10:31.276Z,100.00
2023-01-07T05:12:58.011Z,100.00
2023-01-07T05:15:25.746Z,100.00
2023-01-07T05:17:54.077Z,100.00
2023-01-07T05:20:24.001Z,100.00
2023-01-07T05:22:50.635Z,100.00
2023-01-07T05:25:18.747Z,100.00
2023-01-07T05:27:45.477Z,100.00
2023-01-07T05:30:13.078Z,100.00
2023-01-07T05:32:39.857Z,100.00
2023-01-07T05:35:06.993Z,100.00
2023-01-07T05:37:34.171Z,100.00
2023-01-07T05:40:01.812Z,100.00
2023-01-07T05:42:29.032Z,100.00
2023-01-07T05:44:55.771Z,100.00
2023-01-07T05:47:22.560Z,100.00
2023-01-07T05:49:49.288Z,100.00
2023-01-07T05:52:15.933Z,100.00
2023-01-07T05:54:42.700Z,100.00
2023-01-07T05:57:09.527Z,100.00
2023-01-07T05:59:36.182Z,100.00
2023-01-07T06:02:03.503Z,100.00
2023-01-07T06:04:30.307Z,100.00
2023-01-07T06:06:56.913Z,100.00
2023-01-07T06:09:23.535Z,100.00
2023-01-07T06:11:50.174Z,100.00
2023-01-07T06:14:16.956Z,100.00
2023-01-07T06:16:43.546Z,100.00
2023-01-07T06:19:10.843Z,100.00
2023-01-07T06:21:37.505Z,100.00
2023-01-07T06:24:04.453Z,100.00
2023-01-07T06:26:31.077Z,100.00
2023-01-07T06:28:57.690Z,100.00
2023-01-07T06:31:24.336Z,100.00
2023-01-07T06:33:50.937Z,100.00
2023-01-07T06:36:17.540Z,100.00
2023-01-07T06:38:44.244Z,100.00
2023-01-07T06:41:10.849Z,100.00
2023-01-07T06:43:37.460Z,100.00
2023-01-07T06:46:04.346Z,100.00
2023-01-07T06:48:31.021Z,100.00
2023-01-07T06:50:57.699Z,100.00
2023-01-07T06:53:24.293Z,100.00
2023-01-07T06:55:51.952Z,100.00
2023-01-07T06:58:19.027Z,100.00
2023-01-07T07:00:45.894Z,100.00
2023-01-07T07:03:12.693Z,100.00
2023-01-07T07:05:39.600Z,100.00
2023-01-07T07:08:06.504Z,100.00
2023-01-07T07:10:33.484Z,100.00
2023-01-07T07:13:00.103Z,100.00
2023-01-07T07:15:27.057Z,100.00
2023-01-07T07:17:53.752Z,100.00
2023-01-07T07:20:20.385Z,100.00
2023-01-07T07:22:48.496Z,100.00
2023-01-07T07:25:15.682Z,99.25
2023-01-07T07:27:46.059Z,97.86
2023-01-07T07:30:15.156Z,96.72
2023-01-07T07:32:42.720Z,95.06
2023-01-07T07:35:11.051Z,93.86
2023-01-07T07:37:37.950Z,94.22
2023-01-07T07:40:05.974Z,93.46
2023-01-07T07:42:32.631Z,93.31
2023-01-07T07:45:19.924Z,92.33
2023-01-07T07:47:46.878Z,92.00
2023-01-07T07:50:13.898Z,91.55
2023-01-07T07:52:49.608Z,90.44
2023-01-07T07:55:20.258Z,89.94
2023-01-07T07:57:57.251Z,88.83
2023-01-07T08:00:24.746Z,89.12
2023-01-07T08:02:51.408Z,88.05
2023-01-07T08:05:18.272Z,88.02
2023-01-07T08:07:44.982Z,86.48
2023-01-07T08:10:11.692Z,85.00
2023-01-07T08:12:39.107Z,83.08
2023-01-07T08:15:07.205Z,82.88
2023-01-07T08:17:36.282Z,81.98
2023-01-07T08:20:04.531Z,81.78
2023-01-07T08:22:31.236Z,81.15
2023-01-07T08:24:57.838Z,80.47
2023-01-07T08:27:24.728Z,79.86
2023-01-07T08:29:51.334Z,78.67
2023-01-07T08:32:17.921Z,78.57
2023-01-07T08:34:44.600Z,78.39
2023-01-07T08:37:11.238Z,77.64
2023-01-07T08:39:38.056Z,78.27
2023-01-07T08:42:05.089Z,77.74
2023-01-07T08:44:32.522Z,76.76
2023-01-07T08:46:59.333Z,76.72
2023-01-07T08:49:25.981Z,76.53
2023-01-07T08:51:52.594Z,76.34
2023-01-07T08:54:19.371Z,75.58
2023-01-07T08:56:46.165Z,74.49
2023-01-07T08:59:12.795Z,73.32
2023-01-07T09:01:39.723Z,71.88
2023-01-07T09:04:06.368Z,70.88
2023-01-07T09:06:33.026Z,70.90
2023-01-07T09:08:59.655Z,71.61
2023-01-07T09:11:26.365Z,72.10
2023-01-07T09:13:53.438Z,72.62
2023-01-07T09:16:20.103Z,73.17
2023-01-07T09:18:46.767Z,75.84
2023-01-07T09:21:13.406Z,77.21
2023-01-07T09:23:40.467Z,77.20
2023-01-07T09:26:07.463Z,77.30
2023-01-07T09:28:34.056Z,77.76
2023-01-07T09:31:00.926Z,77.54
2023-01-07T09:33:27.639Z,78.09
2023-01-07T09:35:54.444Z,78.40
2023-01-07T09:38:21.143Z,78.67
2023-01-07T09:40:49.080Z,78.38
2023-01-07T09:44:00.388Z,77.64
2023-01-07T09:46:17.497Z,76.42
2023-01-07T09:48:54.088Z,75.87
2023-01-07T09:51:39.035Z,76.62
2023-01-07T09:54:17.062Z,78.56
2023-01-07T09:56:43.889Z,78.96
2023-01-07T09:59:10.989Z,78.90
2023-01-07T10:01:53.280Z,79.04
2023-01-07T10:04:22.731Z,78.95
2023-01-07T10:07:21.152Z,79.50
2023-01-07T10:10:17.842Z,79.30
2023-01-07T10:12:59.478Z,78.94
2023-01-07T10:15:50.358Z,78.98
2023-01-07T10:18:39.131Z,79.18
2023-01-07T10:21:18.337Z,79.65
2023-01-07T10:23:53.919Z,79.09
2023-01-07T10:26:33.487Z,79.00
2023-01-07T10:29:13.551Z,79.28
2023-01-07T10:31:40.897Z,78.60
2023-01-07T10:34:16.416Z,79.14
2023-01-07T10:37:00.249Z,78.85
2023-01-07T10:39:37.280Z,78.80
2023-01-07T10:42:10.123Z,79.51
2023-01-07T10:45:15.943Z,79.95
2023-01-07T10:48:00.404Z,80.00
2023-01-07T10:50:54.621Z,81.81
2023-01-07T10:53:43.005Z,81.33
2023-01-07T10:56:36.845Z,82.19
2023-01-07T10:59:03.990Z,81.02
2023-01-07T11:01:41.070Z,80.77
2023-01-07T11:04:14.365Z,80.72
2023-01-07T11:06:46.986Z,80.49
2023-01-07T11:09:29.700Z,79.27
2023-01-07T11:12:01.175Z,80.64
2023-01-07T11:14:32.752Z,79.15
2023-01-07T11:17:26.989Z,80.06
2023-01-07T11:19:53.657Z,80.19
2023-01-07T11:22:26.078Z,78.81
2023-01-07T11:24:56.776Z,78.46
2023-01-07T11:27:29.222Z,77.89
2023-01-07T11:29:58.614Z,78.05
2023-01-07T11:32:28.653Z,78.43
2023-01-07T11:35:23.288Z,78.07
2023-01-07T11:37:50.315Z,78.61
2023-01-07T11:40:24.443Z,78.98
2023-01-07T11:43:03.017Z,77.51
2023-01-07T11:46:19.706Z,79.62
2023-01-07T11:48:42.957Z,79.43
2023-01-07T11:51:11.037Z,79.51
2023-01-07T11:53:49.598Z,79.69
2023-01-07T11:56:33.681Z,79.88
2023-01-07T11:59:15.990Z,78.53
2023-01-07T12:01:44.112Z,77.85
2023-01-07T12:04:21.399Z,78.77
2023-01-07T12:06:50.968Z,78.40
2023-01-07T12:09:32.688Z,78.43
2023-01-07T12:12:31.745Z,77.73
2023-01-07T12:15:06.285Z,76.90
2023-01-07T12:17:35.207Z,77.18
2023-01-07T12:20:30.576Z,78.70
2023-01-07T12:23:05.315Z,77.21
2023-01-07T12:25:33.669Z,76.09
2023-01-07T12:28:07.126Z,75.51
2023-01-07T12:30:58.771Z,75.37
2023-01-07T12:33:45.460Z,74.19
2023-01-07T12:36:29.668Z,74.50
2023-01-07T12:39:00.977Z,74.48
2023-01-07T12:41:32.428Z,73.82
2023-01-07T12:44:04.838Z,74.44
2023-01-07T12:47:31.250Z,75.66
2023-01-07T12:49:59.037Z,74.04
2023-01-07T12:52:45.897Z,74.55
2023-01-07T12:55:22.669Z,74.23
2023-01-07T12:58:14.932Z,73.80
2023-01-07T13:00:59.734Z,72.85
2023-01-07T13:03:50.453Z,72.37
2023-01-07T13:06:34.695Z,70.50
2023-01-07T13:09:09.869Z,69.28
2023-01-07T13:12:06.426Z,69.80
2023-01-07T13:14:41.193Z,72.25
2023-01-07T13:17:29.303Z,71.32
2023-01-07T13:19:56.197Z,69.94
2023-01-07T13:22:28.588Z,70.48
2023-01-07T13:25:13.876Z,70.85
2023-01-07T13:28:17.604Z,71.06
2023-01-07T13:30:56.201Z,70.91
2023-01-07T13:33:39.875Z,70.88
2023-01-07T13:36:40.409Z,71.49
2023-01-07T13:39:45.772Z,71.96
2023-01-07T13:42:30.048Z,72.70
2023-01-07T13:45:05.384Z,72.31
2023-01-07T13:47:46.898Z,72.64
2023-01-07T13:50:39.682Z,73.93
2023-01-07T13:53:28.372Z,75.86
2023-01-07T13:56:17.723Z,75.84
2023-01-07T13:58:46.067Z,77.12
2023-01-07T14:01:15.736Z,77.88
2023-01-07T14:03:46.880Z,77.69
2023-01-07T14:06:23.764Z,78.45
2023-01-07T14:08:57.955Z,79.07
2023-01-07T14:11:30.843Z,79.80
2023-01-07T14:14:24.677Z,80.22
2023-01-07T14:17:16.117Z,80.52
2023-01-07T14:20:06.034Z,80.35
2023-01-07T14:22:44.469Z,80.99
2023-01-07T14:25:42.211Z,80.69
2023-01-07T14:28:29.884Z,80.99
2023-01-07T14:30:58.252Z,80.65
2023-01-07T14:33:26.340Z,80.44
2023-01-07T14:36:06.329Z,81.36
2023-01-07T14:38:33.041Z,81.86
2023-01-07T14:41:15.880Z,82.39
2023-01-07T14:43:48.546Z,82.75
2023-01-07T14:46:24.324Z,83.38
2023-01-07T14:49:03.576Z,84.17
2023-01-07T14:51:56.286Z,84.85
2023-01-07T14:54:38.172Z,85.72
2023-01-07T14:57:29.390Z,86.50
2023-01-07T15:00:01.703Z,87.69
2023-01-07T15:03:09.678Z,88.93
2023-01-07T15:06:08.637Z,90.06
2023-01-07T15:09:47.830Z,90.55
2023-01-07T15:12:41.648Z,92.16
2023-01-07T15:15:39.411Z,94.04
2023-01-07T15:18:08.053Z,94.75
2023-01-07T15:21:15.817Z,95.97
2023-01-07T15:24:10.331Z,97.63
2023-01-07T15:26:50.046Z,98.59
2023-01-07T15:29:50.369Z,99.96
2023-01-07T15:32:32.367Z,100.00
2023-01-07T15:34:59.194Z,100.00
2023-01-07T15:37:25.893Z,100.00
2023-01-07T15:39:57.713Z,100.00
2023-01-07T15:42:27.266Z,100.00
2023-01-07T15:44:59.144Z,100.00
2023-01-07T15:47:43.521Z,100.00
2023-01-07T15:50:33.755Z,100.00
2023-01-07T15:53:22.462Z,100.00
2023-01-07T15:55:49.028Z,100.00
2023-01-07T15:58:20.401Z,100.00
2023-01-07T16:00:57.744Z,100.00
2023-01-07T16:03:25.208Z,100.00
2023-01-07T16:05:53.185Z,100.00
2023-01-07T16:08:28.412Z,100.00
2023-01-07T16:11:03.866Z,100.00
2023-01-07T16:13:32.078Z,100.00
2023-01-07T16:16:05.615Z,100.00
2023-01-07T16:18:33.146Z,100.00
2023-01-07T16:21:04.721Z,100.00
2023-01-07T16:23:36.699Z,100.00
2023-01-07T16:26:27.420Z,100.00
2023-01-07T16:29:02.115Z,100.00
2023-01-07T16:31:30.658Z,100.00
2023-01-07T16:33:59.735Z,100.00
2023-01-07T16:36:31.517Z,100.00
2023-01-07T16:39:04.067Z,100.00
2023-01-07T16:41:31.021Z,100.00
2023-01-07T16:43:59.180Z,100.00
2023-01-07T16:46:38.854Z,100.00
2023-01-07T16:49:11.555Z,100.00
2023-01-07T16:51:50.323Z,100.00
2023-01-07T16:54:30.827Z,100.00
2023-01-07T16:56:59.070Z,100.00
2023-01-07T16:59:31.693Z,100.00
2023-01-07T17:02:02.230Z,100.00
2023-01-07T17:04:30.410Z,100.00
2023-01-07T17:07:00.427Z,100.00
2023-01-07T17:09:38.313Z,100.00
2023-01-07T17:12:05.674Z,100.00
2023-01-07T17:14:35.744Z,100.00
2023-01-07T17:17:19.612Z,100.00
2023-01-07T17:19:47.776Z,100.00
2023-01-07T17:22:30.756Z,100.00
2023-01-07T17:25:08.658Z,100.00
2023-01-07T17:27:40.967Z,100.00
2023-01-07T17:30:16.236Z,100.00
2023-01-07T17:32:43.816Z,100.00
2023-01-07T17:35:19.783Z,100.00
2023-01-07T17:37:47.132Z,100.00
2023-01-07T17:40:14.374Z,100.00
2023-01-07T17:43:01.033Z,100.00
2023-01-07T17:45:28.796Z,100.00
2023-01-07T17:47:56.893Z,100.00
2023-01-07T17:50:23.607Z,100.00
2023-01-07T17:52:53.114Z,100.00
2023-01-07T17:55:30.998Z,100.00
2023-01-07T17:57:58.356Z,100.00
2023-01-07T18:00:28.097Z,100.00
2023-01-07T18:02:54.815Z,100.00
2023-01-07T18:05:23.819Z,100.00
2023-01-07T18:07:51.853Z,100.00
2023-01-07T18:10:21.942Z,100.00
2023-01-07T18:12:48.523Z,100.00
2023-01-07T18:15:21.776Z,100.00
2023-01-07T18:17:48.726Z,100.00
2023-01-07T18:20:16.151Z,100.00
2023-01-07T18:22:43.565Z,100.00
2023-01-07T18:25:22.146Z,100.00
2023-01-07T18:27:52.630Z,100.00
2023-01-07T18:30:21.533Z,100.00
2023-01-07T18:32:49.549Z,100.00
2023-01-07T18:35:19.035Z,100.00
2023-01-07T18:37:50.446Z,100.00
2023-01-07T18:40:17.829Z,100.00
2023-01-07T18:42:44.795Z,100.00
2023-01-07T18:45:12.712Z,100.00
2023-01-07T18:47:39.381Z,100.00
2023-01-07T18:50:06.752Z,100.00
2023-01-07T18:52:33.903Z,100.00
2023-01-07T18:55:00.647Z,100.00
2023-01-07T18:57:27.310Z,100.00
2023-01-07T18:59:54.036Z,100.00
2023-01-07T19:02:21.661Z,100.00
2023-01-07T19:04:49.182Z,100.00
2023-01-07T19:07:17.698Z,100.00
2023-01-07T19:09:45.411Z,100.00
2023-01-07T19:12:12.246Z,100.00
2023-01-07T19:14:39.987Z,100.00
2023-01-07T19:17:07.762Z,100.00
2023-01-07T19:19:47.304Z,100.00
2023-01-07T19:22:16.014Z,100.00
2023-01-07T19:24:43.377Z,100.00
2023-01-07T19:27:10.474Z,100.00
2023-01-07T19:29:37.191Z,100.00
2023-01-07T19:32:04.468Z,100.00
2023-01-07T19:34:31.236Z,100.00
2023-01-07T19:36:57.922Z,100.00
2023-01-07T19:39:24.621Z,100.00
2023-01-07T19:41:51.307Z,100.00
2023-01-07T19:44:18.295Z,100.00
2023-01-07T19:46:45.126Z,100.00
2023-01-07T19:49:12.258Z,100.00
2023-01-07T19:51:40.619Z,100.00
2023-01-07T19:54:09.603Z,100.00
2023-01-07T19:56:36.806Z,100.00
2023-01-07T19:59:03.600Z,100.00
2023-01-07T20:01:30.441Z,100.00
2023-01-07T20:03:58.931Z,100.00
2023-01-07T20:06:28.334Z,100.00
2023-01-07T20:08:57.126Z,100.00
2023-01-07T20:11:24.862Z,100.00
2023-01-07T20:13:51.507Z,100.00
2023-01-07T20:16:21.958Z,100.00
2023-01-07T20:18:50.977Z,100.00
2023-01-07T20:21:20.022Z,100.00
2023-01-07T20:23:47.312Z,100.00
2023-01-07T20:26:25.373Z,100.00
2023-01-07T20:28:52.155Z,100.00
2023-01-07T20:31:21.069Z,100.00
2023-01-07T20:33:49.285Z,100.00
2023-01-07T20:36:18.861Z,100.00
2023-01-07T20:38:46.824Z,100.00
2023-01-07T20:41:19.382Z,100.00
2023-01-07T20:43:53.900Z,100.00
2023-01-07T20:46:21.197Z,100.00
2023-01-07T20:48:48.563Z,100.00
2023-01-07T20:51:15.728Z,100.00
2023-01-07T20:53:43.135Z,100.00
2023-01-07T20:56:10.442Z,100.00
2023-01-07T20:58:38.327Z,100.00
2023-01-07T21:01:07.645Z,100.00
2023-01-07T21:03:35.636Z,100.00
2023-01-07T21:06:02.483Z,100.00
2023-01-07T21:08:29.215Z,100.00
2023-01-07T21:10:55.886Z,100.00
2023-01-07T21:13:23.303Z,100.00
2023-01-07T21:15:50.678Z,100.00
2023-01-07T21:18:17.875Z,100.00
2023-01-07T21:20:44.959Z,100.00
2023-01-07T21:23:11.965Z,100.00
2023-01-07T21:25:38.661Z,100.00
2023-01-07T21:28:06.861Z,100.00
2023-01-07T21:30:34.380Z,100.00
2023-01-07T21:33:01.183Z,100.00
2023-01-07T21:35:27.914Z,100.00
2023-01-07T21:37:55.551Z,100.00
2023-01-07T21:40:22.806Z,100.00
2023-01-07T21:42:49.711Z,100.00
2023-01-07T21:45:17.361Z,100.00
2023-01-07T21:47:44.146Z,100.00
2023-01-07T21:50:11.119Z,100.00
2023-01-07T21:52:37.746Z,100.00
2023-01-07T21:55:04.827Z,100.00
2023-01-07T21:57:31.520Z,100.00
2023-01-07T21:59:58.200Z,100.00
2023-01-07T22:02:24.899Z,100.00
2023-01-07T22:04:51.560Z,100.00
2023-01-07T22:07:19.305Z,100.00
2023-01-07T22:09:46.219Z,100.00
2023-01-07T22:12:13.941Z,100.00
2023-01-07T22:14:40.819Z,100.00
2023-01-07T22:17:09.566Z,100.00
2023-01-07T22:19:36.305Z,100.00
2023-01-07T22:22:02.912Z,100.00
2023-01-07T22:24:29.813Z,100.00
2023-01-07T22:26:59.668Z,100.00
2023-01-07T22:29:27.589Z,100.00
2023-01-07T22:31:54.301Z,100.00
2023-01-07T22:34:21.019Z,100.00
2023-01-07T22:36:50.695Z,100.00
2023-01-07T22:39:22.690Z,100.00
2023-01-07T22:41:54.148Z,100.00
2023-01-07T22:44:29.199Z,100.00
2023-01-07T22:46:56.623Z,100.00
2023-01-07T22:49:26.925Z,100.00
2023-01-07T22:51:53.989Z,100.00
2023-01-07T22:54:20.894Z,100.00
2023-01-07T22:56:47.968Z,100.00
2023-01-07T22:59:14.563Z,100.00
2023-01-07T23:01:41.234Z,100.00
2023-01-07T23:04:08.095Z,100.00
2023-01-07T23:06:34.728Z,100.00
2023-01-07T23:09:01.395Z,100.00
2023-01-07T23:11:46.702Z,100.00
2023-01-07T23:14:14.053Z,100.00
2023-01-07T23:16:40.779Z,100.00
2023-01-07T23:19:07.539Z,100.00
2023-01-07T23:21:34.409Z,100.00
2023-01-07T23:24:01.043Z,100.00
2023-01-07T23:26:27.917Z,100.00
2023-01-07T23:28:54.885Z,100.00
2023-01-07T23:31:21.579Z,100.00
2023-01-07T23:33:48.501Z,100.00
2023-01-07T23:36:15.136Z,100.00
2023-01-07T23:38:42.312Z,100.00
2023-01-07T23:41:10.988Z,100.00
2023-01-07T23:43:37.926Z,100.00
2023-01-07T23:46:06.492Z,100.00
2023-01-07T23:48:35.760Z,100.00
2023-01-07T23:51:09.866Z,100.00
2023-01-07T23:53:37.289Z,100.00
2023-01-07T23:56:05.179Z,100.00
2023-01-07T23:58:32.937Z,100.00
